createdAt,value
2022-11-04T00:00:01.418Z,998.25
2022-11-04T00:01:01.417Z,998.28
2022-11-04T00:02:01.408Z,998.29
2022-11-04T00:03:01.297Z,998.28
2022-11-04T00:04:01.230Z,998.28
2022-11-04T00:05:01.182Z,998.37
2022-11-04T00:06:01.142Z,998.35
2022-11-04T00:07:01.093Z,998.29
2022-11-04T00:08:01.046Z,998.32
2022-11-04T00:09:00.995Z,998.32
2022-11-04T00:10:00.952Z,998.35
2022-11-04T00:11:00.904Z,998.34
2022-11-04T00:12:00.856Z,998.36
2022-11-04T00:13:00.807Z,998.33
2022-11-04T00:14:00.768Z,998.33
2022-11-04T00:15:00.715Z,998.39
2022-11-04T00:16:00.669Z,998.37
2022-11-04T00:17:00.619Z,998.44
2022-11-04T00:18:00.576Z,998.44
2022-11-04T00:19:00.546Z,998.43
2022-11-04T00:20:00.484Z,998.39
2022-11-04T00:21:00.434Z,998.49
2022-11-04T00:22:00.391Z,998.48
2022-11-04T00:23:00.339Z,998.52
2022-11-04T00:24:00.294Z,998.51
2022-11-04T00:25:00.250Z,998.54
2022-11-04T00:26:00.197Z,998.57
2022-11-04T00:27:00.151Z,998.55
2022-11-04T00:28:00.119Z,998.57
2022-11-04T00:29:00.066Z,998.58
2022-11-04T00:30:00.024Z,998.62
2022-11-04T00:30:59.962Z,998.64
2022-11-04T00:31:59.925Z,998.60
2022-11-04T00:32:59.869Z,998.63
2022-11-04T00:33:59.833Z,998.69
2022-11-04T00:34:59.790Z,998.68
2022-11-04T00:35:59.729Z,998.74
2022-11-04T00:36:59.685Z,998.74
2022-11-04T00:37:59.634Z,998.79
2022-11-04T00:38:59.589Z,998.84
2022-11-04T00:39:59.540Z,998.84
2022-11-04T00:40:59.499Z,998.87
2022-11-04T00:41:59.449Z,998.88
2022-11-04T00:42:59.407Z,998.94
2022-11-04T00:43:59.355Z,998.98
2022-11-04T00:44:59.302Z,999.04
2022-11-04T00:45:59.261Z,998.99
2022-11-04T00:46:59.211Z,999.01
2022-11-04T00:47:59.166Z,998.97
2022-11-04T00:48:59.116Z,998.94
2022-11-04T00:49:59.070Z,998.82
2022-11-04T00:50:59.041Z,998.97
2022-11-04T00:51:58.979Z,998.93
2022-11-04T00:52:58.929Z,998.98
2022-11-04T00:53:58.885Z,998.92
2022-11-04T00:54:58.837Z,998.97
2022-11-04T00:55:58.791Z,998.99
2022-11-04T00:56:58.740Z,999.06
2022-11-04T00:57:58.696Z,999.00
2022-11-04T00:58:58.646Z,999.02
2022-11-04T00:59:58.605Z,999.01
2022-11-04T01:00:58.575Z,999.09
2022-11-04T01:01:58.684Z,999.10
2022-11-04T01:02:58.459Z,999.15
2022-11-04T01:03:58.428Z,999.12
2022-11-04T01:04:58.364Z,999.09
2022-11-04T01:05:58.317Z,999.15
2022-11-04T01:06:58.292Z,999.08
2022-11-04T01:07:58.225Z,999.11
2022-11-04T01:08:58.175Z,999.08
2022-11-04T01:09:58.131Z,999.13
2022-11-04T01:10:58.082Z,999.16
2022-11-04T01:11:58.037Z,999.15
2022-11-04T01:12:57.987Z,999.14
2022-11-04T01:13:57.945Z,999.20
2022-11-04T01:14:57.904Z,999.12
2022-11-04T01:15:57.851Z,999.13
2022-11-04T01:16:57.801Z,999.11
2022-11-04T01:17:57.752Z,999.13
2022-11-04T01:18:57.706Z,999.14
2022-11-04T01:19:57.661Z,999.18
2022-11-04T01:20:57.613Z,999.19
2022-11-04T01:21:57.573Z,999.18
2022-11-04T01:22:57.539Z,999.26
2022-11-04T01:23:57.477Z,999.25
2022-11-04T01:24:57.423Z,999.28
2022-11-04T01:25:57.379Z,999.32
2022-11-04T01:26:57.334Z,999.35
2022-11-04T01:27:57.296Z,999.42
2022-11-04T01:28:57.251Z,999.41
2022-11-04T01:29:57.192Z,999.49
2022-11-04T01:30:57.142Z,999.41
2022-11-04T01:31:57.096Z,999.48
2022-11-04T01:32:57.051Z,999.46
2022-11-04T01:33:57.001Z,999.47
2022-11-04T01:34:56.952Z,999.50
2022-11-04T01:35:56.908Z,999.49
2022-11-04T01:36:56.862Z,999.48
2022-11-04T01:37:56.815Z,999.49
2022-11-04T01:38:56.786Z,999.51
2022-11-04T01:39:56.719Z,999.54
2022-11-04T01:40:56.669Z,999.60
2022-11-04T01:41:56.674Z,999.57
2022-11-04T01:42:56.578Z,999.57
2022-11-04T01:43:56.531Z,999.58
2022-11-04T01:44:56.483Z,999.52
2022-11-04T01:45:56.437Z,999.56
2022-11-04T01:46:56.388Z,999.58
2022-11-04T01:47:56.341Z,999.63
2022-11-04T01:48:56.294Z,999.66
2022-11-04T01:49:56.247Z,999.56
2022-11-04T01:50:56.203Z,999.63
2022-11-04T01:51:56.155Z,999.65
2022-11-04T01:52:56.111Z,999.62
2022-11-04T01:53:56.062Z,999.69
2022-11-04T01:54:56.028Z,999.64
2022-11-04T01:55:55.966Z,999.80
2022-11-04T01:56:55.918Z,999.68
2022-11-04T01:57:55.871Z,999.66
2022-11-04T01:58:55.822Z,999.75
2022-11-04T01:59:55.777Z,999.70
2022-11-04T02:00:55.808Z,999.75
2022-11-04T02:01:55.861Z,999.71
2022-11-04T02:02:55.636Z,999.75
2022-11-04T02:03:55.595Z,999.67
2022-11-04T02:04:55.539Z,999.68
2022-11-04T02:05:55.494Z,999.71
2022-11-04T02:06:55.448Z,999.71
2022-11-04T02:07:55.409Z,999.77
2022-11-04T02:08:55.351Z,999.74
2022-11-04T02:09:55.306Z,999.75
2022-11-04T02:10:55.275Z,999.75
2022-11-04T02:11:55.216Z,999.82
2022-11-04T02:12:55.163Z,999.78
2022-11-04T02:13:55.117Z,999.84
2022-11-04T02:14:55.070Z,999.69
2022-11-04T02:15:55.025Z,999.78
2022-11-04T02:16:54.974Z,999.74
2022-11-04T02:17:54.929Z,999.73
2022-11-04T02:18:54.879Z,999.72
2022-11-04T02:19:54.836Z,999.67
2022-11-04T02:20:54.788Z,999.66
2022-11-04T02:21:54.742Z,999.68
2022-11-04T02:22:54.691Z,999.68
2022-11-04T02:23:54.651Z,999.63
2022-11-04T02:24:54.600Z,999.62
2022-11-04T02:25:54.551Z,999.63
2022-11-04T02:26:54.521Z,999.65
2022-11-04T02:27:54.459Z,999.66
2022-11-04T02:28:54.409Z,999.59
2022-11-04T02:29:54.362Z,999.62
2022-11-04T02:30:54.315Z,999.55
2022-11-04T02:31:54.272Z,999.61
2022-11-04T02:32:54.220Z,999.61
2022-11-04T02:33:54.179Z,999.65
2022-11-04T02:34:54.126Z,999.67
2022-11-04T02:35:54.082Z,999.65
2022-11-04T02:36:54.033Z,999.66
2022-11-04T02:38:53.939Z,999.68
2022-11-04T02:39:53.894Z,999.70
2022-11-04T02:40:53.849Z,999.66
2022-11-04T02:41:53.798Z,999.72
2022-11-04T02:42:53.767Z,999.70
2022-11-04T02:43:53.713Z,999.70
2022-11-04T02:44:53.655Z,999.68
2022-11-04T02:45:53.611Z,999.68
2022-11-04T02:46:53.562Z,999.70
2022-11-04T02:47:53.526Z,999.73
2022-11-04T02:48:53.470Z,999.70
2022-11-04T02:49:53.420Z,999.71
2022-11-04T02:50:53.374Z,999.74
2022-11-04T02:51:53.327Z,999.73
2022-11-04T02:52:53.277Z,999.74
2022-11-04T02:53:53.237Z,999.74
2022-11-04T02:54:53.183Z,999.74
2022-11-04T02:55:53.142Z,999.78
2022-11-04T02:56:53.096Z,999.80
2022-11-04T02:57:53.046Z,999.80
2022-11-04T02:58:53.016Z,999.73
2022-11-04T02:59:52.961Z,999.80
2022-11-04T03:00:52.977Z,999.75
2022-11-04T03:01:53.016Z,999.79
2022-11-04T03:02:52.815Z,999.78
2022-11-04T03:03:52.766Z,999.70
2022-11-04T03:04:52.731Z,999.71
2022-11-04T03:05:52.670Z,999.74
2022-11-04T03:06:52.624Z,999.72
2022-11-04T03:07:52.576Z,999.72
2022-11-04T03:08:52.528Z,999.69
2022-11-04T03:09:52.474Z,999.64
2022-11-04T03:10:52.438Z,999.73
2022-11-04T03:11:52.381Z,999.74
2022-11-04T03:12:52.333Z,999.74
2022-11-04T03:13:52.289Z,999.74
2022-11-04T03:14:52.258Z,999.70
2022-11-04T03:15:52.191Z,999.70
2022-11-04T03:16:52.150Z,999.68
2022-11-04T03:17:52.098Z,999.72
2022-11-04T03:18:52.054Z,999.69
2022-11-04T03:19:52.004Z,999.70
2022-11-04T03:20:51.955Z,999.69
2022-11-04T03:21:51.907Z,999.74
2022-11-04T03:22:51.863Z,999.70
2022-11-04T03:23:51.817Z,999.68
2022-11-04T03:24:51.765Z,999.72
2022-11-04T03:25:51.717Z,999.66
2022-11-04T03:26:51.672Z,999.69
2022-11-04T03:27:51.624Z,999.73
2022-11-04T03:28:51.581Z,999.71
2022-11-04T03:29:51.527Z,999.73
2022-11-04T03:30:51.500Z,999.77
2022-11-04T03:31:51.436Z,999.80
2022-11-04T03:32:51.388Z,999.78
2022-11-04T03:33:51.338Z,999.78
2022-11-04T03:34:51.294Z,999.79
2022-11-04T03:35:51.245Z,999.73
2022-11-04T03:36:51.206Z,999.80
2022-11-04T03:37:51.147Z,999.77
2022-11-04T03:38:51.103Z,999.79
2022-11-04T03:39:51.054Z,999.82
2022-11-04T03:40:51.007Z,999.81
2022-11-04T03:41:50.959Z,999.79
2022-11-04T03:42:50.916Z,999.79
2022-11-04T03:43:50.863Z,999.85
2022-11-04T03:44:50.819Z,999.78
2022-11-04T03:45:50.767Z,999.83
2022-11-04T03:46:50.738Z,999.88
2022-11-04T03:47:50.673Z,999.90
2022-11-04T03:48:50.627Z,999.93
2022-11-04T03:49:50.578Z,999.92
2022-11-04T03:50:50.534Z,999.95
2022-11-04T03:51:50.484Z,999.99
2022-11-04T03:52:50.439Z,999.97
2022-11-04T03:53:50.391Z,999.97
2022-11-04T03:54:50.343Z,999.98
2022-11-04T03:55:50.297Z,1000.04
2022-11-04T03:56:50.247Z,1000.02
2022-11-04T03:57:50.227Z,1000.00
2022-11-04T03:58:50.155Z,1000.03
2022-11-04T03:59:50.101Z,1000.05
2022-11-04T04:00:50.094Z,1000.06
2022-11-04T04:01:50.110Z,1000.09
2022-11-04T04:02:50.043Z,1000.09
2022-11-04T04:03:49.912Z,1000.11
2022-11-04T04:04:49.864Z,1000.12
2022-11-04T04:05:49.817Z,1000.12
2022-11-04T04:06:49.772Z,1000.11
2022-11-04T04:07:49.727Z,1000.14
2022-11-04T04:08:49.676Z,1000.12
2022-11-04T04:09:49.626Z,1000.10
2022-11-04T04:10:49.581Z,1000.11
2022-11-04T04:11:49.530Z,1000.13
2022-11-04T04:12:49.506Z,1000.10
2022-11-04T04:13:49.437Z,1000.10
2022-11-04T04:14:49.391Z,1000.07
2022-11-04T04:15:49.341Z,1000.09
2022-11-04T04:16:49.294Z,1000.07
2022-11-04T04:17:49.246Z,1000.05
2022-11-04T04:18:52.723Z,1000.06
2022-11-04T04:19:49.150Z,1000.05
2022-11-04T04:20:49.103Z,1000.03
2022-11-04T04:21:49.056Z,1000.04
2022-11-04T04:22:49.008Z,1000.09
2022-11-04T04:23:48.963Z,1000.04
2022-11-04T04:24:48.918Z,1000.09
2022-11-04T04:25:48.870Z,1000.09
2022-11-04T04:26:48.817Z,1000.09
2022-11-04T04:27:48.768Z,1000.08
2022-11-04T04:28:48.724Z,1000.07
2022-11-04T04:29:48.673Z,1000.04
2022-11-04T04:30:48.626Z,1000.00
2022-11-04T04:31:48.581Z,1000.01
2022-11-04T04:32:48.531Z,1000.06
2022-11-04T04:33:48.481Z,1000.07
2022-11-04T04:34:48.453Z,1000.08
2022-11-04T04:35:48.389Z,1000.15
2022-11-04T04:36:48.339Z,1000.14
2022-11-04T04:37:48.292Z,1000.13
2022-11-04T04:38:48.246Z,1000.19
2022-11-04T04:39:48.193Z,1000.18
2022-11-04T04:40:48.167Z,1000.19
2022-11-04T04:41:48.101Z,1000.20
2022-11-04T04:42:48.053Z,1000.20
2022-11-04T04:43:48.005Z,1000.19
2022-11-04T04:44:47.961Z,1000.22
2022-11-04T04:45:47.916Z,1000.26
2022-11-04T04:46:47.911Z,1000.22
2022-11-04T04:47:47.812Z,1000.21
2022-11-04T04:48:47.768Z,1000.22
2022-11-04T04:49:47.718Z,1000.27
2022-11-04T04:50:47.689Z,1000.32
2022-11-04T04:51:47.623Z,1000.33
2022-11-04T04:52:47.577Z,1000.32
2022-11-04T04:53:47.530Z,1000.35
2022-11-04T04:54:47.480Z,1000.31
2022-11-04T04:55:47.429Z,1000.40
2022-11-04T04:56:47.384Z,1000.39
2022-11-04T04:57:47.338Z,1000.38
2022-11-04T04:58:47.287Z,1000.39
2022-11-04T04:59:47.240Z,1000.36
2022-11-04T05:00:47.194Z,1000.37
2022-11-04T05:01:47.327Z,1000.36
2022-11-04T05:02:47.098Z,1000.38
2022-11-04T05:03:47.048Z,1000.35
2022-11-04T05:04:46.999Z,1000.37
2022-11-04T05:05:46.953Z,1000.35
2022-11-04T05:06:46.925Z,1000.37
2022-11-04T05:07:46.860Z,1000.37
2022-11-04T05:08:46.809Z,1000.45
2022-11-04T05:09:46.763Z,1000.41
2022-11-04T05:10:46.715Z,1000.43
2022-11-04T05:11:46.665Z,1000.49
2022-11-04T05:12:46.626Z,1000.50
2022-11-04T05:13:46.568Z,1000.55
2022-11-04T05:14:46.522Z,1000.54
2022-11-04T05:15:46.472Z,1000.55
2022-11-04T05:16:46.425Z,1000.58
2022-11-04T05:17:46.377Z,1000.57
2022-11-04T05:18:46.331Z,1000.57
2022-11-04T05:19:46.282Z,1000.55
2022-11-04T05:20:46.236Z,1000.56
2022-11-04T05:21:46.190Z,1000.55
2022-11-04T05:22:46.158Z,1000.55
2022-11-04T05:23:46.091Z,1000.54
2022-11-04T05:24:46.044Z,1000.55
2022-11-04T05:25:45.994Z,1000.51
2022-11-04T05:26:45.948Z,1000.50
2022-11-04T05:27:45.897Z,1000.51
2022-11-04T05:28:45.868Z,1000.55
2022-11-04T05:29:45.804Z,1000.52
2022-11-04T05:30:45.757Z,1000.59
2022-11-04T05:31:45.710Z,1000.55
2022-11-04T05:32:45.660Z,1000.59
2022-11-04T05:33:45.613Z,1000.57
2022-11-04T05:34:45.568Z,1000.56
2022-11-04T05:35:45.513Z,1000.59
2022-11-04T05:36:45.472Z,1000.63
2022-11-04T05:37:45.418Z,1000.64
2022-11-04T05:38:45.386Z,1000.68
2022-11-04T05:39:45.321Z,1000.69
2022-11-04T05:40:45.275Z,1000.71
2022-11-04T05:41:45.226Z,1000.70
2022-11-04T05:42:45.178Z,1000.71
2022-11-04T05:43:45.135Z,1000.73
2022-11-04T05:44:45.082Z,1000.74
2022-11-04T05:45:45.037Z,1000.77
2022-11-04T05:46:44.988Z,1000.77
2022-11-04T05:47:44.953Z,1000.79
2022-11-04T05:48:44.890Z,1000.79
2022-11-04T05:49:44.840Z,1000.79
2022-11-04T05:50:44.794Z,1000.79
2022-11-04T05:51:44.750Z,1000.82
2022-11-04T05:52:44.713Z,1000.79
2022-11-04T05:53:44.648Z,1000.77
2022-11-04T05:54:44.616Z,1000.87
2022-11-04T05:55:44.552Z,1000.86
2022-11-04T05:56:44.504Z,1000.88
2022-11-04T05:57:44.458Z,1000.88
2022-11-04T05:58:44.409Z,1000.87
2022-11-04T05:59:44.366Z,1000.88
2022-11-04T06:00:44.310Z,1000.93
2022-11-04T06:01:44.338Z,1000.91
2022-11-04T06:02:44.329Z,1000.87
2022-11-04T06:03:44.166Z,1000.93
2022-11-04T06:04:44.119Z,1000.93
2022-11-04T06:05:44.073Z,1000.94
2022-11-04T06:06:44.024Z,1000.93
2022-11-04T06:07:43.973Z,1000.96
2022-11-04T06:08:45.314Z,1000.95
2022-11-04T06:09:43.878Z,1000.98
2022-11-04T06:10:43.852Z,1000.98
2022-11-04T06:11:43.782Z,1000.98
2022-11-04T06:12:43.735Z,1000.98
2022-11-04T06:13:43.686Z,1001.00
2022-11-04T06:14:43.645Z,1001.05
2022-11-04T06:15:43.587Z,1001.05
2022-11-04T06:16:43.541Z,1001.07
2022-11-04T06:17:43.492Z,1001.10
2022-11-04T06:18:43.445Z,1001.16
2022-11-04T06:19:43.399Z,1001.15
2022-11-04T06:20:43.348Z,1001.21
2022-11-04T06:21:43.298Z,1001.19
2022-11-04T06:22:43.250Z,1001.22
2022-11-04T06:23:43.208Z,1001.20
2022-11-04T06:24:43.157Z,1001.24
2022-11-04T06:25:43.109Z,1001.22
2022-11-04T06:26:43.075Z,1001.21
2022-11-04T06:27:43.012Z,1001.14
2022-11-04T06:28:42.960Z,1001.21
2022-11-04T06:29:42.909Z,1001.18
2022-11-04T06:30:42.868Z,1001.19
2022-11-04T06:31:42.831Z,1001.17
2022-11-04T06:32:46.214Z,1001.17
2022-11-04T06:33:42.717Z,1001.16
2022-11-04T06:34:42.677Z,1001.18
2022-11-04T06:35:42.621Z,1001.22
2022-11-04T06:36:42.577Z,1001.22
2022-11-04T06:37:42.524Z,1001.23
2022-11-04T06:38:42.479Z,1001.20
2022-11-04T06:39:42.431Z,1001.30
2022-11-04T06:40:42.388Z,1001.27
2022-11-04T06:41:43.067Z,1001.27
2022-11-04T06:42:42.318Z,1001.33
2022-11-04T06:43:42.235Z,1001.26
2022-11-04T06:44:42.186Z,1001.31
2022-11-04T06:45:42.145Z,1001.33
2022-11-04T06:46:42.092Z,1001.37
2022-11-04T06:47:42.041Z,1001.34
2022-11-04T06:48:42.016Z,1001.32
2022-11-04T06:49:41.946Z,1001.40
2022-11-04T06:50:41.897Z,1001.39
2022-11-04T06:51:41.853Z,1001.38
2022-11-04T06:52:42.661Z,1001.42
2022-11-04T06:53:41.751Z,1001.46
2022-11-04T06:54:41.706Z,1001.44
2022-11-04T06:55:41.654Z,1001.47
2022-11-04T06:56:41.610Z,1001.50
2022-11-04T06:57:41.562Z,1001.48
2022-11-04T06:58:41.532Z,1001.50
2022-11-04T06:59:41.464Z,1001.42
2022-11-04T07:00:41.425Z,1001.50
2022-11-04T07:01:41.515Z,1001.50
2022-11-04T07:02:41.580Z,1001.55
2022-11-04T07:03:41.272Z,1001.55
2022-11-04T07:04:41.224Z,1001.54
2022-11-04T07:05:41.177Z,1001.57
2022-11-04T07:06:42.873Z,1001.58
2022-11-04T07:07:41.079Z,1001.58
2022-11-04T07:08:41.029Z,1001.58
2022-11-04T07:09:40.983Z,1001.60
2022-11-04T07:10:40.937Z,1001.61
2022-11-04T07:11:40.887Z,1001.61
2022-11-04T07:12:40.849Z,1001.60
2022-11-04T07:13:40.790Z,1001.61
2022-11-04T07:14:40.766Z,1001.59
2022-11-04T07:15:40.693Z,1001.58
2022-11-04T07:16:40.649Z,1001.62
2022-11-04T07:17:40.601Z,1001.61
2022-11-04T07:18:40.574Z,1001.64
2022-11-04T07:19:40.513Z,1001.64
2022-11-04T07:20:40.457Z,1001.65
2022-11-04T07:21:40.409Z,1001.71
2022-11-04T07:22:40.360Z,1001.72
2022-11-04T07:23:40.316Z,1001.72
2022-11-04T07:24:40.267Z,1001.74
2022-11-04T07:25:40.215Z,1001.75
2022-11-04T07:26:40.168Z,1001.76
2022-11-04T07:27:40.120Z,1001.76
2022-11-04T07:28:40.070Z,1001.82
2022-11-04T07:29:40.027Z,1001.83
2022-11-04T07:30:39.993Z,1001.84
2022-11-04T07:31:39.932Z,1001.83
2022-11-04T07:32:39.881Z,1001.84
2022-11-04T07:33:39.834Z,1001.86
2022-11-04T07:34:39.784Z,1001.86
2022-11-04T07:35:39.744Z,1001.89
2022-11-04T07:36:39.688Z,1001.84
2022-11-04T07:37:39.641Z,1001.85
2022-11-04T07:38:39.604Z,1001.84
2022-11-04T07:39:39.549Z,1001.83
2022-11-04T07:40:39.499Z,1001.81
2022-11-04T07:41:39.457Z,1001.83
2022-11-04T07:42:39.404Z,1001.85
2022-11-04T07:43:39.359Z,1001.87
2022-11-04T07:44:39.305Z,1001.88
2022-11-04T07:45:39.261Z,1001.90
2022-11-04T07:46:39.236Z,1001.93
2022-11-04T07:47:39.167Z,1001.91
2022-11-04T07:48:39.116Z,1001.93
2022-11-04T07:49:39.141Z,1001.97
2022-11-04T07:50:39.070Z,1002.00
2022-11-04T07:51:38.976Z,1002.01
2022-11-04T07:52:38.925Z,1002.00
2022-11-04T07:53:38.880Z,1002.02
2022-11-04T07:54:38.848Z,1002.03
2022-11-04T07:55:43.145Z,1002.04
2022-11-04T07:56:38.740Z,1002.03
2022-11-04T07:57:38.689Z,1002.05
2022-11-04T07:58:38.844Z,1002.11
2022-11-04T07:59:38.600Z,1002.14
2022-11-04T08:00:38.548Z,1002.13
2022-11-04T08:01:38.566Z,1002.18
2022-11-04T08:02:38.633Z,1002.21
2022-11-04T08:03:38.410Z,1002.25
2022-11-04T08:04:38.355Z,1002.24
2022-11-04T08:05:38.309Z,1002.28
2022-11-04T08:06:38.263Z,1002.28
2022-11-04T08:07:38.216Z,1002.24
2022-11-04T08:08:38.255Z,1002.26
2022-11-04T08:09:38.120Z,1002.27
2022-11-04T08:10:38.074Z,1002.27
2022-11-04T08:11:38.028Z,1002.29
2022-11-04T08:12:37.976Z,1002.32
2022-11-04T08:13:37.931Z,1002.34
2022-11-04T08:14:37.881Z,1002.36
2022-11-04T08:15:37.855Z,1002.34
2022-11-04T08:16:37.788Z,1002.37
2022-11-04T08:17:37.741Z,1002.36
2022-11-04T08:18:37.788Z,1002.42
2022-11-04T08:19:37.647Z,1002.44
2022-11-04T08:20:37.600Z,1002.48
2022-11-04T08:21:37.550Z,1002.45
2022-11-04T08:22:37.503Z,1002.46
2022-11-04T08:23:37.456Z,1002.45
2022-11-04T08:24:37.408Z,1002.46
2022-11-04T08:25:37.364Z,1002.44
2022-11-04T08:26:37.339Z,1002.46
2022-11-04T08:27:37.270Z,1002.47
2022-11-04T08:28:37.218Z,1002.44
2022-11-04T08:29:37.178Z,1002.44
2022-11-04T08:30:37.126Z,1002.46
2022-11-04T08:31:37.079Z,1002.45
2022-11-04T08:32:37.028Z,1002.46
2022-11-04T08:33:37.021Z,1002.48
2022-11-04T08:34:36.953Z,1002.48
2022-11-04T08:35:40.915Z,1002.45
2022-11-04T08:36:36.840Z,1002.48
2022-11-04T08:37:36.794Z,1002.48
2022-11-04T08:38:36.751Z,1002.46
2022-11-04T08:39:36.701Z,1002.50
2022-11-04T08:40:36.651Z,1002.49
2022-11-04T08:41:36.605Z,1002.47
2022-11-04T08:42:36.558Z,1002.49
2022-11-04T08:43:36.610Z,1002.42
2022-11-04T08:44:36.463Z,1002.46
2022-11-04T08:45:36.415Z,1002.46
2022-11-04T08:46:36.372Z,1002.43
2022-11-04T08:47:36.325Z,1002.44
2022-11-04T08:48:36.277Z,1002.46
2022-11-04T08:49:36.230Z,1002.50
2022-11-04T08:50:36.196Z,1002.51
2022-11-04T08:51:36.134Z,1002.50
2022-11-04T08:52:36.082Z,1002.56
2022-11-04T08:53:36.049Z,1002.56
2022-11-04T08:54:35.990Z,1002.59
2022-11-04T08:55:35.943Z,1002.63
2022-11-04T08:56:35.894Z,1002.58
2022-11-04T08:57:35.849Z,1002.64
2022-11-04T08:58:35.803Z,1002.63
2022-11-04T08:59:35.756Z,1002.63
2022-11-04T09:00:35.705Z,1002.66
2022-11-04T09:01:36.273Z,1002.66
2022-11-04T09:02:35.612Z,1002.65
2022-11-04T09:03:35.701Z,1002.67
2022-11-04T09:04:35.516Z,1002.70
2022-11-04T09:05:35.474Z,1002.68
2022-11-04T09:06:35.441Z,1002.65
2022-11-04T09:07:35.378Z,1002.67
2022-11-04T09:08:35.328Z,1002.61
2022-11-04T09:09:35.284Z,1002.63
2022-11-04T09:10:35.235Z,1002.65
2022-11-04T09:11:35.194Z,1002.62
2022-11-04T09:12:35.158Z,1002.63
2022-11-04T09:13:39.370Z,1002.68
2022-11-04T09:14:35.046Z,1002.67
2022-11-04T09:15:35.001Z,1002.66
2022-11-04T09:16:34.955Z,1002.70
2022-11-04T09:17:34.908Z,1002.74
2022-11-04T09:18:34.860Z,1002.75
2022-11-04T09:19:34.815Z,1002.75
2022-11-04T09:21:34.721Z,1002.78
2022-11-04T09:22:34.774Z,1002.81
2022-11-04T09:23:34.692Z,1002.84
2022-11-04T09:24:34.578Z,1002.82
2022-11-04T09:25:34.531Z,1002.84
2022-11-04T09:26:34.485Z,1002.85
2022-11-04T09:27:34.449Z,1002.86
2022-11-04T09:28:34.395Z,1002.84
2022-11-04T09:29:34.344Z,1002.82
2022-11-04T09:30:34.298Z,1002.82
2022-11-04T09:31:34.249Z,1002.86
2022-11-04T09:32:34.208Z,1002.82
2022-11-04T09:33:34.274Z,1002.79
2022-11-04T09:34:34.109Z,1002.79
2022-11-04T09:35:34.063Z,1002.78
2022-11-04T09:36:34.014Z,1002.78
2022-11-04T09:37:33.975Z,1002.78
2022-11-04T09:38:34.031Z,1002.81
2022-11-04T09:39:33.880Z,1002.81
2022-11-04T09:40:33.832Z,1002.85
2022-11-04T09:41:33.780Z,1002.80
2022-11-04T09:42:33.741Z,1002.84
2022-11-04T09:43:36.347Z,1002.81
2022-11-04T09:44:37.069Z,1002.81
2022-11-04T09:45:33.596Z,1002.72
2022-11-04T09:46:33.549Z,1002.79
2022-11-04T09:47:33.501Z,1002.80
2022-11-04T09:48:33.458Z,1002.78
2022-11-04T09:49:33.412Z,1002.79
2022-11-04T09:50:33.363Z,1002.78
2022-11-04T09:51:53.213Z,1002.81
2022-11-04T09:52:33.270Z,1002.82
2022-11-04T09:53:33.222Z,1002.81
2022-11-04T09:54:33.279Z,1002.80
2022-11-04T09:55:33.130Z,1002.81
2022-11-04T09:56:33.083Z,1002.85
2022-11-04T09:57:33.138Z,1002.88
2022-11-04T09:58:32.991Z,1002.93
2022-11-04T09:59:32.942Z,1002.94
2022-11-04T10:00:32.907Z,1002.94
2022-11-04T10:01:33.060Z,1002.97
2022-11-04T10:02:32.878Z,1002.97
2022-11-04T10:03:32.759Z,1002.99
2022-11-04T10:04:32.712Z,1003.03
2022-11-04T10:05:32.663Z,1002.98
2022-11-04T10:06:32.619Z,1003.01
2022-11-04T10:07:32.571Z,1002.99
2022-11-04T10:08:37.580Z,1002.99
2022-11-04T10:09:32.478Z,1002.98
2022-11-04T10:10:32.538Z,1003.00
2022-11-04T10:11:32.383Z,1002.96
2022-11-04T10:12:32.340Z,1002.97
2022-11-04T10:13:32.290Z,1002.94
2022-11-04T10:14:35.458Z,1002.94
2022-11-04T10:15:32.199Z,1002.91
2022-11-04T10:16:32.154Z,1002.94
2022-11-04T10:17:32.106Z,1002.95
2022-11-04T10:18:32.061Z,1002.91
2022-11-04T10:19:32.013Z,1002.93
2022-11-04T10:20:32.208Z,1002.94
2022-11-04T10:21:31.920Z,1002.96
2022-11-04T10:22:31.872Z,1003.01
2022-11-04T10:23:31.829Z,1002.99
2022-11-04T10:24:31.785Z,1003.03
2022-11-04T10:25:31.734Z,1003.01
2022-11-04T10:26:31.794Z,1003.03
2022-11-04T10:27:31.642Z,1003.01
2022-11-04T10:28:31.596Z,1003.06
2022-11-04T10:29:31.551Z,1003.06
2022-11-04T10:30:31.503Z,1003.06
2022-11-04T10:31:31.459Z,1003.04
2022-11-04T10:32:31.409Z,1003.03
2022-11-04T10:33:31.365Z,1003.02
2022-11-04T10:35:31.271Z,1003.04
2022-11-04T10:36:31.220Z,1003.00
2022-11-04T10:37:31.175Z,1003.02
2022-11-04T10:38:31.127Z,1002.97
2022-11-04T10:39:31.085Z,1002.98
2022-11-04T10:40:31.034Z,1002.99
2022-11-04T10:41:30.989Z,1003.01
2022-11-04T10:42:31.048Z,1003.04
2022-11-04T10:43:30.899Z,1003.01
2022-11-04T10:44:30.849Z,1003.05
2022-11-04T10:45:30.804Z,1003.08
2022-11-04T10:46:34.346Z,1003.07
2022-11-04T10:47:30.741Z,1003.09
2022-11-04T10:48:30.664Z,1003.11
2022-11-04T10:49:30.618Z,1003.16
2022-11-04T10:50:31.530Z,1003.14
2022-11-04T10:51:30.528Z,1003.19
2022-11-04T10:52:30.478Z,1003.19
2022-11-04T10:53:30.433Z,1003.20
2022-11-04T10:54:30.396Z,1003.24
2022-11-04T10:55:30.340Z,1003.22
2022-11-04T10:56:30.349Z,1003.25
2022-11-04T10:57:30.248Z,1003.25
2022-11-04T10:58:30.217Z,1003.26
2022-11-04T10:59:30.159Z,1003.27
2022-11-04T11:00:30.172Z,1003.21
2022-11-04T11:01:30.236Z,1003.26
2022-11-04T11:02:30.121Z,1003.23
2022-11-04T11:03:29.971Z,1003.26
2022-11-04T11:04:29.924Z,1003.26
2022-11-04T11:05:29.879Z,1003.25
2022-11-04T11:06:29.836Z,1003.28
2022-11-04T11:07:29.789Z,1003.26
2022-11-04T11:08:29.740Z,1003.30
2022-11-04T11:09:29.696Z,1003.26
2022-11-04T11:10:29.649Z,1003.27
2022-11-04T11:11:29.602Z,1003.34
2022-11-04T11:13:29.513Z,1003.35
2022-11-04T11:14:29.486Z,1003.39
2022-11-04T11:15:29.429Z,1003.39
2022-11-04T11:16:29.370Z,1003.39
2022-11-04T11:17:29.327Z,1003.43
2022-11-04T11:18:29.279Z,1003.38
2022-11-04T11:19:29.239Z,1003.39
2022-11-04T11:20:29.189Z,1003.40
2022-11-04T11:21:29.144Z,1003.41
2022-11-04T11:22:29.095Z,1003.39
2022-11-04T11:23:29.059Z,1003.43
2022-11-04T11:24:29.023Z,1003.42
2022-11-04T11:25:28.978Z,1003.44
2022-11-04T11:26:28.911Z,1003.45
2022-11-04T11:27:28.868Z,1003.44
2022-11-04T11:28:28.820Z,1003.47
2022-11-04T11:29:28.774Z,1003.48
2022-11-04T11:30:28.745Z,1003.51
2022-11-04T11:31:28.683Z,1003.55
2022-11-04T11:32:28.642Z,1003.56
2022-11-04T11:33:28.593Z,1003.56
2022-11-04T11:34:28.546Z,1003.57
2022-11-04T11:35:28.498Z,1003.57
2022-11-04T11:36:28.450Z,1003.57
2022-11-04T11:37:28.415Z,1003.57
2022-11-04T11:38:28.358Z,1003.58
2022-11-04T11:39:28.317Z,1003.59
2022-11-04T11:40:28.270Z,1003.63
2022-11-04T11:41:28.233Z,1003.67
2022-11-04T11:42:28.176Z,1003.67
2022-11-04T11:43:28.130Z,1003.69
2022-11-04T11:44:28.085Z,1003.68
2022-11-04T11:45:28.144Z,1003.74
2022-11-04T11:46:28.011Z,1003.76
2022-11-04T11:47:27.949Z,1003.77
2022-11-04T11:48:27.902Z,1003.80
2022-11-04T11:49:27.856Z,1003.79
2022-11-04T11:50:27.810Z,1003.78
2022-11-04T11:51:31.962Z,1003.75
2022-11-04T11:52:27.721Z,1003.73
2022-11-04T11:53:27.684Z,1003.74
2022-11-04T11:54:27.640Z,1003.70
2022-11-04T11:55:27.580Z,1003.67
2022-11-04T11:56:36.256Z,1003.67
2022-11-04T11:57:27.488Z,1003.66
2022-11-04T12:00:44.359Z,1003.61
2022-11-04T12:01:27.407Z,1003.65
2022-11-04T12:02:27.502Z,1003.67
2022-11-04T12:03:28.045Z,1003.69
2022-11-04T12:06:27.197Z,1003.74
2022-11-04T12:09:31.447Z,1003.75
2022-11-04T12:10:49.332Z,1003.77
2022-11-04T12:11:26.847Z,1003.75
2022-11-04T12:12:26.803Z,1003.70
2022-11-04T12:13:27.701Z,1003.73
2022-11-04T12:14:26.714Z,1003.70
2022-11-04T12:15:26.669Z,1003.70
2022-11-04T12:16:26.621Z,1003.71
2022-11-04T12:17:26.574Z,1003.67
2022-11-04T12:18:26.554Z,1003.68
2022-11-04T12:19:26.484Z,1003.72
2022-11-04T12:20:26.438Z,1003.74
2022-11-04T12:21:26.390Z,1003.73